メインページ
METAR-TAF:

METAR-TAF

空港 :

アルジェ, アルジェリア

ウアリ・ブーメディアン空港

緯度: 36-43N, 経度: 003-15E, 海抜: 25m

現時点の気象観測

当レポートは32分前の11:30(UTC)に作成
北/北西の風 10kt
気温 26°C
湿度 28%
気圧 1017 hPa
視程10km以上
高度3300ftの雲はほとんどない
高度20000ftの千切れ雲あり

METAR: DAAG 231130Z 34010KT 9999 FEW033 BKN200 26/06 Q1017

時間: 13:02 (12:02 UTC)

予報

当レポートは7時間2分前の05:00(UTC)に作成
予報は23日の 06時(UTC)から 24日の 06時(UTC)まで有効
南/南東の風 8kt
視程10km以上
高度2600ftの雲はほとんどない
23日の 10時(UTC)から 23日の 14時(UTC)まで徐々に
北東の風 12kt
23日の 17時(UTC)から 23日の 20時(UTC)まで徐々に
変向風 2kt

TAF: DAAG 230500Z 2306/2406 16008KT 9999 FEW026 BECMG 2310/2314 04012KT BECMG 2317/2320 VRB02KT

4,000以上の空港の気象観測と天気予報(METAR報とTAF報)

利用可能な観測所は地図上に黄色い丸と赤い丸で示す。

丸の上にカーソルを重ねると観測所名を参照できる。

次にクリックすると気象観測と天気予報を参照できる。

マップの切り替え:黒色「×」印の緑ボタンをクリックして拡大、「-」印の緑ボタンをクリックして縮小、緑色の三角印をクリックして隣りの地図に切り替え


METAR-TAF: